CYAZ

Tofino / Long Beach Airport

Tofino, , Canada
METAR CYAZ 151900Z 09007KT 10SM -SHRA BKN023 OVC032 05/03 A2953 RMK CU5SC3 VRY LGT PCPN SLP002
Observed Flight Rules
Feb-15 @ 19:00 UTC (11 minutes ago) Marginal Visual Flight Rules
Wind Visibility Clouds Conditions
90° at 7 knots 10 miles
  • Broken at 2,300' AGL
  • Overcast at 3,200' AGL
  • Light Rain
Temperatures Readings
Current 5°C / 41°F
Dewpoint 3°C / 37°F
Humidity 87%
Altimeter 29.53" Hg
Pressure 1000.2 hPa
Elevation 24
METAR CYAZ 151900Z 09007KT 10SM -SHRA BKN023 OVC032 05/03 A2953 RMK CU5SC3 VRY LGT PCPN SLP002
Observed Flight Rules
Feb-15 @ 19:00 UTC
(11 minutes ago)
MVFR
Wind Visibility
90° at 7 knots 10 miles
Clouds
  • Broken at 2,300' AGL
  • Overcast at 3,200' AGL
Conditions
  • Light Rain
Temperature Dewpoint
5°C / 41°F 3°C / 37°F
Humidity Altimeter Pressure
87% 29.53" Hg 1000.2 hPa